createdAt,value
2022-10-11T00:00:22.336Z,98.78
2022-10-11T00:02:40.265Z,98.72
2022-10-11T00:04:59.270Z,98.93
2022-10-11T00:07:17.499Z,99.34
2022-10-11T00:09:35.824Z,99.44
2022-10-11T00:11:56.267Z,99.65
2022-10-11T00:14:14.774Z,99.24
2022-10-11T00:16:31.231Z,99.34
2022-10-11T00:18:51.827Z,99.49
2022-10-11T00:21:12.527Z,99.59
2022-10-11T00:23:33.005Z,99.84
2022-10-11T00:25:53.653Z,99.89
2022-10-11T00:28:11.244Z,99.99
2022-10-11T00:30:25.836Z,99.99
2022-10-11T00:32:43.986Z,99.99
2022-10-11T00:35:04.590Z,99.99
2022-10-11T00:37:36.044Z,99.99
2022-10-11T00:39:55.095Z,99.99
2022-10-11T00:43:47.760Z,99.99
2022-10-11T00:46:30.425Z,99.99
2022-10-11T00:49:40.862Z,99.99
2022-10-11T00:51:58.874Z,99.99
2022-10-11T00:54:15.392Z,99.99
2022-10-11T00:56:31.722Z,99.99
2022-10-11T00:58:52.628Z,99.99
2022-10-11T01:01:13.386Z,99.99
2022-10-11T01:03:33.972Z,99.99
2022-10-11T01:05:52.995Z,99.99
2022-10-11T01:08:10.833Z,99.99
2022-10-11T01:10:26.453Z,99.99
2022-10-11T01:12:49.229Z,99.99
2022-10-11T01:15:08.760Z,99.99
2022-10-11T01:17:29.118Z,99.99
2022-10-11T01:19:47.585Z,99.99
2022-10-11T01:22:05.688Z,99.99
2022-10-11T01:24:25.557Z,99.99
2022-10-11T01:26:43.950Z,99.99
2022-10-11T01:29:01.944Z,99.99
2022-10-11T01:31:22.551Z,99.99
2022-10-11T01:33:40.473Z,99.99
2022-10-11T01:35:58.654Z,99.99
2022-10-11T01:38:15.394Z,99.99
2022-10-11T01:40:33.380Z,99.99
2022-10-11T01:42:53.827Z,99.99
2022-10-11T01:45:11.998Z,99.99
2022-10-11T01:47:30.247Z,99.99
2022-10-11T01:49:46.786Z,99.99
2022-10-11T01:52:07.488Z,99.99
2022-10-11T01:54:39.268Z,99.99
2022-10-11T01:55:28.992Z,99.99
2022-10-11T01:57:44.618Z,99.99
2022-10-11T02:00:01.188Z,99.99
2022-10-11T02:02:18.622Z,99.99
2022-10-11T02:04:40.407Z,99.99
2022-10-11T02:07:02.315Z,99.99
2022-10-11T02:09:22.917Z,99.99
2022-10-11T02:11:40.962Z,99.99
2022-10-11T02:14:01.761Z,99.99
2022-10-11T02:16:20.095Z,99.99
2022-10-11T02:18:41.379Z,99.99
2022-10-11T02:20:57.831Z,99.99
2022-10-11T02:23:16.049Z,99.99
2022-10-11T02:25:55.281Z,99.99
2022-10-11T02:27:49.888Z,99.99
2022-10-11T02:30:10.514Z,99.99
2022-10-11T02:32:29.261Z,99.99
2022-10-11T02:34:47.644Z,99.99
2022-10-11T02:37:05.401Z,99.99
2022-10-11T02:39:26.006Z,99.99
2022-10-11T02:41:46.149Z,99.99
2022-10-11T02:44:07.134Z,99.99
2022-10-11T02:46:25.206Z,99.99
2022-10-11T02:48:44.368Z,99.99
2022-10-11T02:51:02.459Z,99.99
2022-10-11T02:53:20.477Z,99.99
2022-10-11T02:55:41.246Z,99.99
2022-10-11T02:58:00.254Z,99.99
2022-10-11T03:00:16.728Z,99.99
2022-10-11T03:02:34.991Z,99.99
2022-10-11T03:04:52.986Z,99.99
2022-10-11T03:07:13.550Z,99.99
2022-10-11T03:09:30.055Z,99.99
2022-10-11T03:11:49.419Z,99.99
2022-10-11T03:14:06.096Z,99.99
2022-10-11T03:16:22.649Z,99.99
2022-10-11T03:18:42.069Z,99.99
2022-10-11T03:21:03.022Z,99.99
2022-10-11T03:23:23.677Z,99.99
2022-10-11T03:25:45.207Z,99.99
2022-10-11T03:28:06.850Z,99.99
2022-10-11T03:30:25.187Z,99.99
2022-10-11T03:32:43.213Z,99.99
2022-10-11T03:35:03.892Z,99.99
2022-10-11T03:37:23.008Z,99.99
2022-10-11T03:39:43.689Z,99.99
2022-10-11T03:42:00.148Z,99.99
2022-10-11T03:44:20.800Z,99.99
2022-10-11T03:46:38.899Z,99.99
2022-10-11T03:48:59.522Z,99.99
2022-10-11T03:51:17.688Z,99.99
2022-10-11T03:53:38.139Z,99.99
2022-10-11T03:55:54.818Z,99.99
2022-10-11T03:58:12.411Z,99.99
2022-10-11T04:00:32.950Z,99.99
2022-10-11T04:02:49.620Z,99.99
2022-10-11T04:05:07.391Z,99.99
2022-10-11T04:07:21.798Z,99.99
2022-10-11T04:09:41.225Z,99.99
2022-10-11T04:12:01.634Z,99.99
2022-10-11T04:14:19.873Z,99.99
2022-10-11T04:16:40.700Z,99.99
2022-10-11T04:18:55.536Z,99.99
2022-10-11T04:21:16.271Z,99.99
2022-10-11T04:23:34.177Z,99.99
2022-10-11T04:25:54.865Z,99.99
2022-10-11T04:28:15.232Z,99.99
2022-10-11T04:30:33.583Z,99.99
2022-10-11T04:32:51.591Z,99.99
2022-10-11T04:35:09.739Z,99.99
2022-10-11T04:37:26.345Z,99.99
2022-10-11T04:39:42.937Z,99.99
2022-10-11T04:42:01.004Z,99.99
2022-10-11T04:44:14.514Z,99.99
2022-10-11T04:46:35.115Z,99.99
2022-10-11T04:48:53.418Z,99.99
2022-10-11T04:51:12.717Z,99.99
2022-10-11T04:53:27.300Z,99.99
2022-10-11T04:55:45.509Z,99.99
2022-10-11T04:58:03.254Z,99.99
2022-10-11T05:00:24.179Z,99.99
2022-10-11T05:02:44.444Z,99.99
2022-10-11T05:05:02.903Z,99.99
2022-10-11T05:07:20.974Z,99.99
2022-10-11T05:09:37.597Z,99.99
2022-10-11T05:11:58.289Z,99.99
2022-10-11T05:14:18.910Z,99.99
2022-10-11T05:16:39.865Z,99.99
2022-10-11T05:18:57.745Z,99.99
2022-10-11T05:21:18.554Z,99.99
2022-10-11T05:23:36.865Z,99.99
2022-10-11T05:25:58.131Z,99.99
2022-10-11T05:28:12.459Z,99.99
2022-10-11T05:30:27.023Z,99.99
2022-10-11T05:32:43.626Z,99.99
2022-10-11T05:35:01.730Z,99.99
2022-10-11T05:37:13.787Z,99.99
2022-10-11T05:39:32.871Z,99.99
2022-10-11T05:41:48.453Z,99.99
2022-10-11T05:44:09.221Z,99.99
2022-10-11T05:46:43.273Z,99.99
2022-10-11T05:49:10.618Z,99.99
2022-10-11T05:51:26.201Z,99.99
2022-10-11T05:53:41.839Z,99.99
2022-10-11T05:55:58.448Z,99.99
2022-10-11T05:58:17.526Z,99.99
2022-10-11T06:00:34.576Z,99.99
2022-10-11T06:02:52.784Z,99.99
2022-10-11T06:05:13.408Z,99.99
2022-10-11T06:07:31.420Z,99.99
2022-10-11T06:09:49.510Z,99.99
2022-10-11T06:12:07.666Z,99.99
2022-10-11T06:14:25.751Z,99.99
2022-10-11T06:16:41.357Z,99.99
2022-10-11T06:18:56.974Z,99.99
2022-10-11T06:21:12.460Z,99.99
2022-10-11T06:23:29.233Z,99.99
2022-10-11T06:25:45.925Z,99.99
2022-10-11T06:28:00.679Z,99.99
2022-10-11T06:30:38.163Z,99.99
2022-10-11T06:32:35.278Z,99.99
2022-10-11T06:34:53.333Z,99.99
2022-10-11T06:37:11.351Z,99.99
2022-10-11T06:39:31.975Z,99.99
2022-10-11T06:41:50.120Z,99.99
2022-10-11T06:44:13.259Z,99.99
2022-10-11T06:46:26.364Z,99.99
2022-10-11T06:48:47.345Z,99.99
2022-10-11T06:51:05.725Z,99.99
2022-10-11T06:53:23.801Z,99.99
2022-10-11T06:55:44.457Z,99.99
2022-10-11T06:57:59.797Z,99.99
2022-10-11T07:00:17.962Z,99.99
2022-10-11T07:02:38.792Z,99.99
2022-10-11T07:04:56.816Z,99.99
2022-10-11T07:07:14.706Z,99.99
2022-10-11T07:09:35.330Z,99.99
2022-10-11T07:11:54.393Z,99.99
2022-10-11T07:14:12.475Z,99.99
2022-10-11T07:16:30.818Z,99.99
2022-10-11T07:18:48.768Z,99.99
2022-10-11T07:21:06.864Z,99.99
2022-10-11T07:23:20.597Z,99.99
2022-10-11T07:25:35.040Z,99.99
2022-10-11T07:27:49.544Z,99.99
2022-10-11T07:32:42.040Z,99.99
2022-10-11T07:34:58.513Z,99.99
2022-10-11T07:37:16.873Z,99.99
2022-10-11T07:39:37.386Z,99.99
2022-10-11T07:41:55.468Z,99.99
2022-10-11T07:44:09.059Z,99.99
2022-10-11T07:46:27.190Z,99.99
2022-10-11T07:48:47.914Z,99.99
2022-10-11T07:51:03.755Z,99.99
2022-10-11T07:53:24.110Z,99.99
2022-10-11T07:55:39.727Z,99.99
2022-10-11T07:58:00.623Z,99.99
2022-10-11T08:00:20.934Z,99.99
2022-10-11T08:02:42.368Z,99.99
2022-10-11T08:05:03.003Z,99.99
2022-10-11T08:07:20.509Z,99.99
2022-10-11T08:09:39.194Z,99.99
2022-10-11T08:11:53.597Z,99.99
2022-10-11T08:14:10.311Z,99.99
2022-10-11T08:16:28.393Z,99.99
2022-10-11T08:18:44.812Z,99.99
2022-10-11T08:21:01.473Z,99.99
2022-10-11T08:23:19.488Z,99.99
2022-10-11T08:25:39.409Z,99.99
2022-10-11T08:27:53.162Z,99.99
2022-10-11T08:30:11.483Z,99.99
2022-10-11T08:32:26.169Z,99.99
2022-10-11T08:34:44.418Z,99.26
2022-10-11T08:37:00.899Z,99.05
2022-10-11T08:39:18.120Z,99.01
2022-10-11T08:41:32.740Z,98.80
2022-10-11T08:43:55.114Z,98.39
2022-10-11T08:47:06.745Z,98.14
2022-10-11T08:49:31.799Z,96.97
2022-10-11T08:52:00.311Z,96.42
2022-10-11T08:55:52.022Z,95.50
2022-10-11T08:58:30.684Z,94.53
2022-10-11T09:02:02.711Z,93.92
2022-10-11T09:05:00.722Z,94.29
2022-10-11T09:07:40.750Z,93.57
2022-10-11T09:12:43.919Z,93.73
2022-10-11T09:28:01.655Z,88.73
2022-10-11T09:30:45.918Z,87.30
2022-10-11T09:56:41.140Z,84.91
2022-10-11T10:36:06.844Z,73.36
2022-10-11T10:39:10.989Z,73.56
2022-10-11T10:41:31.238Z,74.57
2022-10-11T10:45:08.419Z,75.65
2022-10-11T10:49:11.727Z,76.90
2022-10-11T10:49:54.469Z,73.80
2022-10-11T10:50:37.363Z,73.83
2022-10-11T10:53:17.792Z,75.35
2022-10-11T11:06:01.082Z,78.33
2022-10-11T11:17:01.424Z,77.62
2022-10-11T11:58:22.259Z,78.11
2022-10-11T12:00:42.457Z,72.75
2022-10-11T12:03:04.933Z,74.55
2022-10-11T12:05:21.290Z,72.28
2022-10-11T12:07:38.813Z,71.36
2022-10-11T12:09:52.052Z,72.21
2022-10-11T12:13:20.220Z,67.58
2022-10-11T12:18:20.749Z,66.67
2022-10-11T12:20:46.653Z,66.44
2022-10-11T12:23:05.785Z,67.25
2022-10-11T12:25:29.493Z,64.32
2022-10-11T12:27:52.643Z,64.62
2022-10-11T12:30:09.435Z,64.52
2022-10-11T12:32:27.504Z,65.47
2022-10-11T12:34:44.815Z,64.69
2022-10-11T12:37:06.664Z,66.03
2022-10-11T12:39:20.126Z,68.40
2022-10-11T12:41:34.706Z,67.31
2022-10-11T12:43:51.373Z,69.27
2022-10-11T12:46:08.484Z,72.14
2022-10-11T12:48:49.968Z,74.68
2022-10-11T12:51:09.272Z,73.29
2022-10-11T12:53:27.279Z,75.52
2022-10-11T12:55:47.781Z,74.04
2022-10-11T12:58:09.057Z,76.17
2022-10-11T13:00:28.405Z,77.12
2022-10-11T13:02:46.909Z,72.55
2022-10-11T13:05:23.682Z,72.04
2022-10-11T13:07:41.223Z,73.36
2022-10-11T13:09:59.238Z,71.73
2022-10-11T13:12:17.309Z,74.58
2022-10-11T13:15:56.776Z,71.84
2022-10-11T13:18:18.634Z,66.72
2022-10-11T13:20:37.424Z,67.84
2022-10-11T13:23:00.292Z,68.62
2022-10-11T13:25:20.581Z,68.70
2022-10-11T13:27:51.711Z,69.60
2022-10-11T13:30:20.113Z,68.87
2022-10-11T13:31:19.846Z,65.82
2022-10-11T13:33:37.967Z,67.41
2022-10-11T13:35:56.144Z,68.43
2022-10-11T13:38:16.622Z,69.61
2022-10-11T13:40:34.722Z,69.71
2022-10-11T13:42:48.303Z,68.19
2022-10-11T13:45:03.893Z,68.40
2022-10-11T13:47:22.017Z,71.94
2022-10-11T13:49:37.591Z,68.43
2022-10-11T13:51:53.165Z,68.12
2022-10-11T13:52:53.161Z,69.95
2022-10-11T13:55:11.244Z,70.48
2022-10-11T13:57:29.350Z,70.18
2022-10-11T13:59:44.914Z,70.59
2022-10-11T14:02:03.017Z,72.41
2022-10-11T14:04:22.028Z,69.47
2022-10-11T14:06:39.179Z,70.18
2022-10-11T14:08:55.725Z,69.17
2022-10-11T14:11:10.832Z,70.28
2022-10-11T14:13:28.460Z,69.17
2022-10-11T14:15:46.552Z,70.56
2022-10-11T14:18:04.606Z,70.76
2022-10-11T14:20:29.521Z,70.96
2022-10-11T14:21:26.370Z,70.76
2022-10-11T14:23:46.349Z,68.83
2022-10-11T14:26:05.178Z,68.32
2022-10-11T14:28:18.953Z,68.93
2022-10-11T14:30:34.638Z,67.72
2022-10-11T14:32:52.725Z,69.24
2022-10-11T14:35:10.836Z,69.20
2022-10-11T14:37:28.910Z,67.21
2022-10-11T14:39:49.507Z,67.31
2022-10-11T14:42:08.828Z,70.21
2022-10-11T14:44:26.934Z,69.84
2022-10-11T14:46:44.981Z,70.68
2022-10-11T14:49:03.122Z,73.77
2022-10-11T14:51:18.664Z,75.53
2022-10-11T14:53:40.761Z,76.68
2022-10-11T14:55:53.351Z,77.33
2022-10-11T14:58:11.485Z,79.20
2022-10-11T15:00:30.564Z,79.54
2022-10-11T15:02:47.079Z,81.62
2022-10-11T15:05:06.304Z,81.41
2022-10-11T15:07:27.591Z,82.88
2022-10-11T15:09:44.843Z,83.63
2022-10-11T15:12:02.985Z,84.04
2022-10-11T15:14:20.997Z,84.14
2022-10-11T15:16:37.890Z,85.10
2022-10-11T15:18:55.968Z,84.39
2022-10-11T15:21:11.549Z,84.90
2022-10-11T15:23:29.667Z,88.37
2022-10-11T15:25:45.238Z,88.47
2022-10-11T15:28:01.894Z,89.28
2022-10-11T15:30:21.729Z,89.39
2022-10-11T15:33:24.744Z,89.49
2022-10-11T15:35:38.064Z,88.98
2022-10-11T15:37:56.197Z,89.79
2022-10-11T15:40:50.450Z,91.06
2022-10-11T15:43:08.507Z,91.98
2022-10-11T15:45:23.084Z,92.19
2022-10-11T15:47:38.699Z,92.90
2022-10-11T15:49:59.778Z,92.54
2022-10-11T15:52:15.222Z,92.54
2022-10-11T15:54:36.370Z,92.54
2022-10-11T15:56:57.139Z,92.07
2022-10-11T15:59:17.157Z,92.68
2022-10-11T16:01:33.947Z,92.42
2022-10-11T16:03:51.963Z,91.39
2022-10-11T16:06:08.894Z,91.95
2022-10-11T16:08:26.549Z,92.46
2022-10-11T16:10:44.729Z,92.81
2022-10-11T16:13:00.200Z,92.60
2022-10-11T16:15:18.521Z,92.65
2022-10-11T16:17:36.401Z,92.75
2022-10-11T16:19:54.516Z,92.79
2022-10-11T16:22:13.050Z,93.10
2022-10-11T16:24:28.914Z,93.45
2022-10-11T16:26:49.419Z,93.76
2022-10-11T16:29:05.920Z,94.52
2022-10-11T16:31:57.934Z,95.44
2022-10-11T16:34:44.198Z,94.98
2022-10-11T16:37:15.846Z,95.07
2022-10-11T16:39:48.372Z,94.98
2022-10-11T16:42:06.467Z,95.23
2022-10-11T16:44:24.827Z,95.32
2022-10-11T16:46:41.725Z,95.89
2022-10-11T16:48:56.346Z,96.81
2022-10-11T16:51:12.920Z,96.81
2022-10-11T16:53:34.057Z,96.03
2022-10-11T16:55:54.643Z,95.72
2022-10-11T16:58:12.730Z,96.14
2022-10-11T17:00:30.882Z,96.03
2022-10-11T17:02:47.449Z,95.87
2022-10-11T17:05:04.048Z,96.48
2022-10-11T17:07:22.097Z,97.15
2022-10-11T17:09:43.733Z,97.15
2022-10-11T17:12:21.685Z,96.43
2022-10-11T17:14:39.818Z,97.09
2022-10-11T17:16:54.546Z,96.78
2022-10-11T17:19:10.790Z,97.40
2022-10-11T17:21:32.809Z,97.65
2022-10-11T17:23:54.676Z,98.06
2022-10-11T17:26:19.218Z,98.88
2022-10-11T17:28:29.924Z,98.83
2022-10-11T17:30:53.228Z,99.34
2022-10-11T17:33:13.247Z,98.93
2022-10-11T17:35:30.689Z,98.62
2022-10-11T17:40:11.369Z,99.60
2022-10-11T17:45:36.906Z,99.99
2022-10-11T17:48:26.464Z,99.99
2022-10-11T17:50:49.654Z,99.99
2022-10-11T17:57:35.229Z,99.99
2022-10-11T17:59:56.040Z,99.99
2022-10-11T18:02:17.954Z,99.99
2022-10-11T18:04:39.674Z,99.99
2022-10-11T18:06:58.548Z,99.99
2022-10-11T18:09:14.852Z,99.99
2022-10-11T18:11:35.788Z,99.99
2022-10-11T18:13:53.637Z,99.99
2022-10-11T18:16:14.137Z,99.99
2022-10-11T18:18:31.686Z,99.99
2022-10-11T18:20:52.367Z,99.99
2022-10-11T18:23:13.401Z,99.99
2022-10-11T18:25:31.322Z,99.99
2022-10-11T18:27:51.507Z,99.99
2022-10-11T18:30:10.343Z,99.99
2022-10-11T18:32:29.949Z,99.99
2022-10-11T18:34:48.009Z,99.99
2022-10-11T18:37:07.184Z,99.99
2022-10-11T18:40:56.788Z,99.99
2022-10-11T18:43:14.705Z,99.99
2022-10-11T18:45:48.559Z,99.99
2022-10-11T18:48:22.311Z,99.99
2022-10-11T18:50:39.551Z,99.99
2022-10-11T18:52:57.644Z,99.99
2022-10-11T18:55:12.247Z,99.99
2022-10-11T18:57:50.993Z,99.99
2022-10-11T19:00:37.747Z,99.99
2022-10-11T19:01:13.851Z,99.99
2022-10-11T19:03:34.812Z,99.99
2022-10-11T19:05:51.379Z,99.99
2022-10-11T19:08:07.130Z,99.99
2022-10-11T19:10:27.876Z,99.99
2022-10-11T19:13:01.947Z,99.99
2022-10-11T19:15:18.465Z,99.99
2022-10-11T19:18:06.650Z,99.99
2022-10-11T19:20:27.240Z,99.99
2022-10-11T19:22:47.925Z,99.99
2022-10-11T19:25:05.919Z,99.99
2022-10-11T19:27:24.043Z,99.99
2022-10-11T19:30:26.051Z,99.99
2022-10-11T19:32:46.779Z,99.99
2022-10-11T19:35:07.531Z,99.99
2022-10-11T19:37:48.415Z,99.99
2022-10-11T19:40:05.950Z,99.99
2022-10-11T19:42:54.001Z,99.99
2022-10-11T19:45:30.602Z,99.99
2022-10-11T19:51:08.765Z,99.99
2022-10-11T19:53:47.207Z,99.99
2022-10-11T19:56:05.088Z,99.99
2022-10-11T19:58:21.712Z,99.99
2022-10-11T20:00:38.291Z,99.99
2022-10-11T20:02:53.855Z,99.99
2022-10-11T20:05:08.735Z,99.99
2022-10-11T20:07:24.370Z,99.99
2022-10-11T20:09:42.654Z,99.99
2022-10-11T20:12:00.525Z,99.99
2022-10-11T20:14:21.180Z,99.99
2022-10-11T20:16:41.722Z,99.99
2022-10-11T20:18:59.857Z,99.99
2022-10-11T20:21:11.999Z,99.99
2022-10-11T20:23:43.838Z,99.99
2022-10-11T20:26:01.915Z,99.99
2022-10-11T20:28:22.547Z,99.99
2022-10-11T20:30:42.421Z,99.99
2022-10-11T20:33:01.803Z,99.99
2022-10-11T20:35:19.888Z,99.99
2022-10-11T20:37:37.965Z,99.99
2022-10-11T20:39:58.561Z,99.99
2022-10-11T20:42:15.164Z,99.99
2022-10-11T20:44:33.241Z,99.99
2022-10-11T20:46:48.818Z,99.99
2022-10-11T20:49:06.924Z,99.99
2022-10-11T20:51:25.043Z,99.99
2022-10-11T20:53:43.137Z,99.99
2022-10-11T20:55:58.717Z,99.99
2022-10-11T20:58:16.816Z,99.99
2022-10-11T21:00:34.924Z,99.99
2022-10-11T21:02:53.020Z,99.99
2022-10-11T21:05:08.650Z,99.99
2022-10-11T21:07:29.226Z,99.99
2022-10-11T21:09:49.820Z,99.99
2022-10-11T21:12:08.769Z,99.99
2022-10-11T21:14:26.010Z,99.99
2022-10-11T21:16:42.640Z,99.99
2022-10-11T21:19:00.709Z,99.99
2022-10-11T21:21:18.818Z,99.99
2022-10-11T21:23:36.908Z,99.99
2022-10-11T21:25:57.525Z,99.99
2022-10-11T21:28:18.453Z,99.99
2022-10-11T21:30:39.015Z,99.99
2022-10-11T21:32:59.617Z,99.99
2022-10-11T21:35:20.205Z,99.99
2022-10-11T21:37:38.284Z,99.99
2022-10-11T21:39:56.407Z,99.99
2022-10-11T21:42:14.503Z,99.99
2022-10-11T21:44:32.572Z,99.99
2022-10-11T21:47:07.462Z,99.99
2022-10-11T21:47:53.294Z,99.99
2022-10-11T21:50:11.750Z,99.99
2022-10-11T21:52:32.497Z,99.99
2022-10-11T21:54:51.267Z,99.99
2022-10-11T21:57:07.060Z,99.99
2022-10-11T21:59:25.156Z,99.99
2022-10-11T22:01:41.946Z,99.99
2022-10-11T22:03:58.592Z,99.99
2022-10-11T22:06:15.170Z,99.99
2022-10-11T22:08:33.335Z,99.99
2022-10-11T22:10:53.980Z,99.99
2022-10-11T22:13:14.512Z,99.99
2022-10-11T22:15:32.643Z,99.99
2022-10-11T22:17:53.182Z,99.99
2022-10-11T22:20:11.070Z,99.99
2022-10-11T22:22:31.640Z,99.99
2022-10-11T22:24:47.758Z,99.99
2022-10-11T22:27:05.348Z,99.99
2022-10-11T22:29:28.507Z,99.99
2022-10-11T22:31:41.531Z,99.99
2022-10-11T22:34:02.216Z,99.99
2022-10-11T22:36:22.701Z,99.99
2022-10-11T22:38:43.297Z,99.99
2022-10-11T22:41:04.481Z,99.99
2022-10-11T22:43:22.550Z,99.99
2022-10-11T22:45:43.137Z,99.99
2022-10-11T22:48:01.240Z,99.99
2022-10-11T22:50:21.864Z,99.99
2022-10-11T22:52:42.423Z,99.99
2022-10-11T22:55:00.548Z,99.99
2022-10-11T22:57:21.210Z,99.99
2022-10-11T22:59:39.225Z,99.99
2022-10-11T23:01:55.777Z,99.99
2022-10-11T23:04:13.929Z,99.99
2022-10-11T23:06:30.531Z,99.99
2022-10-11T23:08:51.100Z,99.99
2022-10-11T23:11:11.246Z,99.99
2022-10-11T23:13:29.319Z,99.99
2022-10-11T23:15:47.417Z,99.99
2022-10-11T23:18:05.596Z,99.99
2022-10-11T23:20:22.190Z,99.99
2022-10-11T23:22:40.283Z,99.99
2022-10-11T23:24:58.441Z,99.99
2022-10-11T23:27:16.533Z,99.99
2022-10-11T23:29:37.144Z,99.99
2022-10-11T23:31:57.670Z,99.99
2022-10-11T23:34:16.783Z,99.99
2022-10-11T23:36:34.835Z,99.99
2022-10-11T23:38:50.462Z,99.99
2022-10-11T23:41:08.543Z,99.99
2022-10-11T23:43:26.799Z,99.99
2022-10-11T23:45:42.238Z,99.99
2022-10-11T23:48:02.823Z,99.99
2022-10-11T23:50:20.982Z,99.99
2022-10-11T23:52:39.029Z,99.99
2022-10-11T23:54:57.099Z,99.99
2022-10-11T23:57:15.214Z,99.99
2022-10-11T23:59:33.329Z,99.99
